»·PEaware :: N900TB KSLC-KPSP

N900TB :: KSLC-KPSP

FLIGHT INFORMATION

Flight Status: Arrived
Operator: Privately registered:
United States
More flights under this callsign
Pilot: Saso K. (7898)
Aircraft: SOCATA TBM-900
(TBM9)
More flights by this aircraft type
Origin: KSLC Salt Lake City Intl
United States
Destination: KPSP Palm Springs Intl
United States
More flights between these airports :: More routes between these airports
Route: +SEVYR3 MLF BERYL V21 BLD GFS CLOWD1
File this flight plan on PilotEdge
Remarks:
Altitude:
(Current/Filed)
28,000ft
Speed:
(Current/Filed)
325kts
Departed: 29-Nov-17 03:25 PM
Arrived: 29-Nov-17 05:18 PM
Distance/Time
Traveled:
470nm/1:52
Distance/Time
To Go:
Arrived

Flight Plot

Page will automatically refresh every two minutes.

Flight plan parsing failed; only flown route is shown


Map Options




Map Legend


Flown Route
Filed Route
Departure Airport
Arrival Airport
Navaid (VOR, NDB)
Fix

Horizontal Profiles

Position Reports

Time Latitude Longitude Heading Altitude Ground
Speed
29-Nov-17 14:53 40.775648 -111.958738 87 4222ft 0kts
29-Nov-17 14:54 40.775648 -111.958738 87 4222ft 0kts
29-Nov-17 14:55 40.775648 -111.958738 87 4222ft 0kts
29-Nov-17 14:56 40.775648 -111.958738 87 4222ft 0kts
29-Nov-17 14:57 40.775648 -111.958738 87 4222ft 0kts
29-Nov-17 14:58 40.775648 -111.958738 87 4222ft 0kts
29-Nov-17 14:59 40.775648 -111.958738 87 4222ft 0kts
29-Nov-17 15:03 40.775648 -111.958738 87 4222ft 0kts
29-Nov-17 15:04 40.775648 -111.958738 87 4222ft 0kts
29-Nov-17 15:05 40.775648 -111.958738 87 4222ft 0kts
29-Nov-17 15:06 40.775648 -111.958738 87 4222ft 0kts
29-Nov-17 15:07 40.775648 -111.958738 87 4222ft 0kts
29-Nov-17 15:08 40.775648 -111.958738 87 4222ft 0kts
29-Nov-17 15:09 40.775648 -111.958738 87 4222ft 0kts
29-Nov-17 15:10 40.775648 -111.958738 87 4222ft 0kts
29-Nov-17 15:11 40.775648 -111.958738 87 4222ft 0kts
29-Nov-17 15:12 40.775648 -111.958738 87 4222ft 0kts
29-Nov-17 15:13 40.775648 -111.958738 87 4222ft 0kts
29-Nov-17 15:14 40.775648 -111.958738 87 4222ft 0kts
29-Nov-17 15:15 40.775648 -111.958738 87 4222ft 0kts
29-Nov-17 15:16 40.775648 -111.958738 87 4222ft 0kts
29-Nov-17 15:17 40.775648 -111.958738 87 4222ft 0kts
29-Nov-17 15:18 40.775648 -111.958738 87 4222ft 0kts
29-Nov-17 15:19 40.775648 -111.958738 87 4222ft 0kts
29-Nov-17 15:20 40.775647 -111.958738 87 4222ft 0kts
29-Nov-17 15:21 40.775803 -111.959075 273 4222ft 0kts
29-Nov-17 15:22 40.775807 -111.959121 279 4222ft 3kts
29-Nov-17 15:23 40.775798 -111.960409 273 4222ft 0kts
29-Nov-17 15:24 40.774710 -111.960586 182 4222ft 11kts
29-Nov-17 15:25 40.772828 -111.960777 230 4222ft 2kts
29-Nov-17 15:26 40.772815 -111.960798 231 4222ft 0kts
29-Nov-17 15:27 40.772815 -111.960798 231 4222ft 0kts
29-Nov-17 15:28 40.772815 -111.960798 231 4222ft 0kts
29-Nov-17 15:29 40.772704 -111.961651 270 4222ft 11kts
29-Nov-17 15:30 40.789501 -111.961760 358 4698ft 119kts
29-Nov-17 15:31 40.826492 -111.961889 355 6624ft 137kts
29-Nov-17 15:32 40.864692 -111.961661 355 8675ft 141kts
29-Nov-17 15:33 40.904455 -111.962175 336 10545ft 145kts
29-Nov-17 15:34 40.895259 -111.998912 211 12493ft 150kts
29-Nov-17 15:35 40.858331 -112.024041 211 14410ft 153kts
29-Nov-17 15:36 40.820205 -112.050288 212 16359ft 159kts
29-Nov-17 15:37 40.782189 -112.076291 211 18541ft 155kts
29-Nov-17 15:38 40.743516 -112.102641 212 20406ft 163kts
29-Nov-17 15:39 40.703380 -112.130048 213 22409ft 167kts
29-Nov-17 15:40 40.662088 -112.158227 213 24351ft 173kts
29-Nov-17 15:41 40.619352 -112.187390 213 26262ft 179kts
29-Nov-17 15:42 40.574830 -112.217746 214 28051ft 185kts
29-Nov-17 15:43 40.522757 -112.253620 212 28415ft 249kts
29-Nov-17 15:44 40.455443 -112.299582 211 28389ft 291kts
29-Nov-17 15:45 40.381509 -112.349831 211 28380ft 309kts
29-Nov-17 15:46 40.304960 -112.401640 211 28376ft 316kts
29-Nov-17 15:47 40.226998 -112.454200 211 28367ft 319kts
29-Nov-17 15:48 40.148751 -112.506821 211 28358ft 320kts
29-Nov-17 15:49 40.074939 -112.556346 211 28355ft 320kts
29-Nov-17 15:50 39.997132 -112.608430 211 28355ft 320kts
29-Nov-17 15:51 39.918745 -112.660774 210 28349ft 321kts
29-Nov-17 15:52 39.839951 -112.713242 210 28347ft 321kts
29-Nov-17 15:53 39.760777 -112.765838 210 28342ft 322kts
29-Nov-17 15:54 39.680259 -112.815522 197 28330ft 327kts
29-Nov-17 15:55 39.589703 -112.830732 190 28331ft 330kts
29-Nov-17 15:56 39.498660 -112.844819 190 28330ft 331kts
29-Nov-17 15:57 39.408937 -112.858546 190 28330ft 331kts
29-Nov-17 15:58 39.318489 -112.872248 190 28330ft 332kts
29-Nov-17 15:59 39.227154 -112.885991 190 28330ft 332kts
29-Nov-17 16:00 39.135429 -112.899708 190 28328ft 333kts
29-Nov-17 16:01 39.043695 -112.913342 190 28323ft 334kts
29-Nov-17 16:02 38.951751 -112.926909 191 28320ft 331kts
29-Nov-17 16:03 38.864094 -112.939854 190 28311ft 324kts
29-Nov-17 16:04 38.775286 -112.952889 190 28312ft 319kts
29-Nov-17 16:05 38.687522 -112.965740 190 28310ft 318kts
29-Nov-17 16:06 38.599996 -112.978502 190 28307ft 317kts
29-Nov-17 16:07 38.512756 -112.991215 190 28312ft 316kts
29-Nov-17 16:08 38.425391 -113.003872 190 28313ft 317kts
29-Nov-17 16:09 38.342635 -113.031958 214 28314ft 308kts
29-Nov-17 16:10 38.270240 -113.089903 214 28310ft 309kts
29-Nov-17 16:11 38.197704 -113.148022 214 28304ft 309kts
29-Nov-17 16:12 38.125267 -113.206137 214 28292ft 309kts
29-Nov-17 16:13 38.052827 -113.264233 214 28275ft 309kts
29-Nov-17 16:14 37.980296 -113.322364 214 28270ft 309kts
29-Nov-17 16:15 37.907956 -113.380294 214 28271ft 309kts
29-Nov-17 16:16 37.835974 -113.437867 215 28273ft 309kts
29-Nov-17 16:17 37.763568 -113.495667 215 28274ft 308kts
29-Nov-17 16:18 37.690994 -113.553490 214 28274ft 309kts
29-Nov-17 16:19 37.618543 -113.611133 214 28252ft 309kts
29-Nov-17 16:20 37.548665 -113.666619 214 28230ft 310kts
29-Nov-17 16:21 37.477166 -113.723256 214 28205ft 310kts
29-Nov-17 16:22 37.404140 -113.781005 214 28204ft 310kts
29-Nov-17 16:23 37.333291 -113.836911 214 28202ft 310kts
29-Nov-17 16:24 37.260568 -113.894141 214 28205ft 309kts
29-Nov-17 16:25 37.187637 -113.951426 214 28196ft 309kts
29-Nov-17 16:26 37.114785 -114.008508 214 28197ft 309kts
29-Nov-17 16:27 37.042211 -114.065262 214 28199ft 306kts
29-Nov-17 16:28 36.970897 -114.120956 213 28197ft 299kts
29-Nov-17 16:29 36.901393 -114.175138 214 28194ft 294kts
29-Nov-17 16:30 36.833318 -114.228054 214 28204ft 292kts
29-Nov-17 16:31 36.764356 -114.281477 213 28197ft 292kts
29-Nov-17 16:32 36.695469 -114.334232 213 28189ft 292kts
29-Nov-17 16:33 36.626526 -114.386858 214 28172ft 292kts
29-Nov-17 16:34 36.557469 -114.439526 214 28167ft 292kts
29-Nov-17 16:35 36.488539 -114.492000 214 28161ft 292kts
29-Nov-17 16:36 36.419486 -114.544455 214 28165ft 291kts
29-Nov-17 16:37 36.351086 -114.596299 214 28169ft 291kts
29-Nov-17 16:38 36.282717 -114.648016 214 28174ft 291kts
29-Nov-17 16:39 36.214341 -114.699669 214 28184ft 292kts
29-Nov-17 16:40 36.145766 -114.751364 214 28188ft 292kts
29-Nov-17 16:41 36.077491 -114.802707 214 28184ft 292kts
29-Nov-17 16:42 36.020893 -114.845188 214 28188ft 292kts
29-Nov-17 16:43 35.935134 -114.884780 200 28189ft 297kts
29-Nov-17 16:44 35.857570 -114.913425 200 28194ft 297kts
29-Nov-17 16:45 35.778486 -114.942483 200 28193ft 297kts
29-Nov-17 16:46 35.699318 -114.971465 200 28193ft 298kts
29-Nov-17 16:47 35.619868 -115.000439 200 28192ft 299kts
29-Nov-17 16:48 35.540375 -115.029346 200 28193ft 300kts
29-Nov-17 16:49 35.474701 -115.053161 200 28186ft 301kts
29-Nov-17 16:50 35.383716 -115.086057 199 28169ft 303kts
29-Nov-17 16:51 35.318634 -115.109527 199 28157ft 304kts
29-Nov-17 16:52 35.239710 -115.137924 199 28137ft 305kts
29-Nov-17 16:53 35.148780 -115.170560 199 28116ft 306kts
29-Nov-17 16:54 35.082700 -115.198489 202 28119ft 306kts
29-Nov-17 16:55 35.004999 -115.232699 203 28122ft 306kts
29-Nov-17 16:56 34.926362 -115.267209 204 28114ft 297kts
29-Nov-17 16:57 34.852099 -115.299756 204 28116ft 286kts
29-Nov-17 16:58 34.779050 -115.331795 204 28117ft 280kts
29-Nov-17 16:59 34.706500 -115.363512 204 27782ft 271kts
29-Nov-17 17:00 34.633602 -115.395504 203 25699ft 289kts
29-Nov-17 17:01 34.557623 -115.428709 202 24126ft 288kts
29-Nov-17 17:02 34.482825 -115.461295 202 22846ft 286kts
29-Nov-17 17:03 34.407854 -115.493884 202 21528ft 287kts
29-Nov-17 17:04 34.332901 -115.526629 205 20211ft 288kts
29-Nov-17 17:05 34.273041 -115.590493 222 18883ft 289kts
29-Nov-17 17:06 34.214179 -115.656443 221 17571ft 291kts
29-Nov-17 17:07 34.161457 -115.715474 221 16622ft 289kts
29-Nov-17 17:08 34.117690 -115.764369 221 15942ft 287kts
29-Nov-17 17:09 34.058570 -115.813275 213 14534ft 286kts
29-Nov-17 17:10 33.992845 -115.866506 213 12836ft 286kts
29-Nov-17 17:11 33.927686 -115.919165 213 11384ft 281kts
29-Nov-17 17:12 33.867930 -115.967307 213 10951ft 265kts
29-Nov-17 17:13 33.808397 -116.013022 211 9699ft 251kts
29-Nov-17 17:14 33.750083 -116.057162 211 8213ft 248kts
29-Nov-17 17:15 33.693655 -116.100157 211 6751ft 241kts
29-Nov-17 17:16 33.658489 -116.157008 291 6033ft 235kts
29-Nov-17 17:17 33.686510 -116.227783 294 5899ft 246kts
29-Nov-17 17:18 33.715994 -116.301868 295 6149ft 247kts
29-Nov-17 17:19 33.741524 -116.367132 295 5269ft 199kts
29-Nov-17 17:20 33.762859 -116.415815 301 3705ft 158kts
29-Nov-17 17:21 33.787172 -116.459050 306 1570ft 152kts
29-Nov-17 17:22 33.811108 -116.488287 320 779ft 95kts
29-Nov-17 17:23 33.828771 -116.503977 325 418ft 27kts
29-Nov-17 17:24 33.830015 -116.504379 54 419ft 0kts
29-Nov-17 17:25 33.827536 -116.501875 142 411ft 22kts
29-Nov-17 17:26 33.826444 -116.499975 42 403ft 3kts
29-Nov-17 17:27 33.826571 -116.499936 322 403ft 0kts

Navigation Log

Ident Type
Flight plan parsing failed, navigation log unavailable